Time;durP1;ratioP1;P1;durP2;ratioP2;P2;SDS_P1;SDS_P2;PMS_P1;PMS_P2;Temp;Humidity;BMP_temperature;BMP_pressure;BME280_temperature;BME280_humidity;BME280_pressure;Samples;Min_cycle;Max_cycle;Signal;HPM_P1;HPM_P2
2024/01/17 00:01:59;;;;;;;1999.90;999.90;;;0.20;99.90;;;;;;5050546;28;20043;-83
2024/01/17 00:04:27;;;;;;;1999.90;999.90;;;0.20;99.90;;;;;;5076237;28;20054;-83
2024/01/17 00:06:53;;;;;;;1999.90;999.90;;;0.20;99.90;;;;;;5076892;28;20036;-83
2024/01/17 00:09:18;;;;;;;1999.90;999.90;;;0.20;99.90;;;;;;5061384;28;20139;-83
2024/01/17 00:11:45;;;;;;;1999.90;999.90;;;0.20;99.90;;;;;;5052785;28;20061;-83
2024/01/17 00:14:11;;;;;;;1999.90;999.90;;;0.90;99.90;;;;;;5050859;28;20044;-83
2024/01/17 00:16:37;;;;;;;1999.90;999.90;;;0.20;99.90;;;;;;5069616;28;20036;-84
2024/01/17 00:19:06;;;;;;;1999.90;999.90;;;0.20;99.90;;;;;;5037814;28;20029;-84
2024/01/17 00:21:32;;;;;;;1999.90;999.90;;;0.20;99.90;;;;;;5054431;28;20037;-83
2024/01/17 00:23:57;;;;;;;1999.90;999.90;;;0.20;99.90;;;;;;5039626;28;20037;-83
2024/01/17 00:26:23;;;;;;;1999.90;999.90;;;0.20;99.90;;;;;;5051406;28;20131;-83
2024/01/17 00:28:50;;;;;;;1999.90;999.90;;;0.10;99.90;;;;;;5038295;28;20056;-84
2024/01/17 00:31:15;;;;;;;1999.90;999.90;;;0.10;99.90;;;;;;5053545;28;20040;-83
2024/01/17 00:33:41;;;;;;;1999.90;999.90;;;0.10;99.90;;;;;;5069865;28;20115;-83
2024/01/17 00:36:10;;;;;;;1999.90;999.90;;;0.00;99.90;;;;;;5067696;28;20494;-83
2024/01/17 00:38:36;;;;;;;1999.90;999.90;;;0.00;99.90;;;;;;5068812;28;20063;-84
2024/01/17 00:41:05;;;;;;;1999.90;999.90;;;0.00;99.90;;;;;;5058066;28;20036;-83
2024/01/17 00:43:31;;;;;;;1999.90;999.90;;;0.00;99.90;;;;;;5053038;28;20417;-83
2024/01/17 00:46:01;;;;;;;1999.90;999.90;;;0.00;99.90;;;;;;5068742;28;20071;-83
2024/01/17 00:48:27;;;;;;;1999.90;999.90;;;0.00;99.90;;;;;;5053059;28;20068;-83
2024/01/17 00:50:54;;;;;;;1999.90;999.90;;;0.70;99.90;;;;;;5066880;28;20033;-83
2024/01/17 00:53:22;;;;;;;1999.90;999.90;;;0.00;99.90;;;;;;5057795;28;20096;-84
2024/01/17 00:55:49;;;;;;;1999.90;999.90;;;0.00;99.90;;;;;;5079280;28;20037;-84
2024/01/17 00:58:14;;;;;;;1999.90;999.90;;;0.00;99.90;;;;;;5068522;28;20090;-84
2024/01/17 01:00:40;;;;;;;1999.90;999.90;;;0.00;99.90;;;;;;5067923;28;20477;-84
2024/01/17 01:03:06;;;;;;;1999.90;999.90;;;0.00;99.90;;;;;;5031545;28;20059;-84
2024/01/17 01:05:31;;;;;;;1999.90;999.90;;;0.00;99.90;;;;;;5049916;28;20040;-84
2024/01/17 01:07:57;;;;;;;1999.90;999.90;;;0.00;99.90;;;;;;5071963;28;20072;-84
2024/01/17 01:10:23;;;;;;;1999.90;999.90;;;0.00;99.90;;;;;;5053659;28;20060;-84
2024/01/17 01:12:50;;;;;;;1999.90;999.90;;;0.00;99.90;;;;;;5070827;28;20041;-84
2024/01/17 01:15:20;;;;;;;1999.90;999.90;;;0.00;99.90;;;;;;5068073;28;20064;-84
2024/01/17 01:17:45;;;;;;;1999.90;999.90;;;0.10;99.90;;;;;;5056462;28;20058;-84
2024/01/17 01:20:11;;;;;;;1999.90;999.90;;;0.10;99.90;;;;;;5040618;28;20033;-84
2024/01/17 01:22:37;;;;;;;1999.90;999.90;;;0.10;99.90;;;;;;5053750;28;20069;-83
2024/01/17 01:25:03;;;;;;;1999.90;999.90;;;0.10;99.90;;;;;;5074678;28;20052;-83
2024/01/17 01:27:29;;;;;;;1999.90;999.90;;;0.20;99.90;;;;;;5062213;28;20048;-83
2024/01/17 01:29:54;;;;;;;1999.90;999.90;;;0.10;99.90;;;;;;5038385;28;20052;-83
2024/01/17 01:32:23;;;;;;;1999.90;999.90;;;0.20;99.90;;;;;;5055239;28;20040;-85
2024/01/17 01:34:50;;;;;;;1999.90;999.90;;;0.20;99.90;;;;;;5070133;28;20039;-83
2024/01/17 01:37:20;;;;;;;1999.90;999.90;;;0.20;99.90;;;;;;5051079;28;20040;-79
2024/01/17 01:39:45;;;;;;;1999.90;999.90;;;0.10;99.90;;;;;;5054370;28;20063;-80
2024/01/17 01:42:11;;;;;;;1999.90;999.90;;;0.20;99.90;;;;;;5060386;28;20086;-80
2024/01/17 01:44:36;;;;;;;1999.90;999.90;;;0.20;99.90;;;;;;5081568;28;20433;-80
2024/01/17 01:47:02;;;;;;;1999.90;999.90;;;0.20;99.90;;;;;;5054002;28;20044;-78
2024/01/17 01:49:29;;;;;;;1999.90;999.90;;;0.20;99.90;;;;;;5055682;28;20636;-79
2024/01/17 01:51:54;;;;;;;1999.90;999.90;;;0.10;99.90;;;;;;5051231;28;20037;-79
2024/01/17 01:54:22;;;;;;;1999.90;999.90;;;0.10;99.90;;;;;;5073789;28;20090;-81
2024/01/17 01:56:48;;;;;;;1999.90;999.90;;;0.70;99.90;;;;;;5057975;28;20094;-80
2024/01/17 01:59:17;;;;;;;1999.90;999.90;;;0.10;99.90;;;;;;5073202;28;20044;-79
2024/01/17 02:01:43;;;;;;;1999.90;999.90;;;0.10;99.90;;;;;;5069174;28;20048;-79
2024/01/17 02:04:09;;;;;;;1999.90;999.90;;;0.10;99.90;;;;;;5064623;28;20111;-80
2024/01/17 02:06:35;;;;;;;1999.90;999.90;;;0.10;99.90;;;;;;5063596;28;20055;-79
2024/01/17 02:09:02;;;;;;;1999.90;999.90;;;0.10;99.90;;;;;;5070967;28;20033;-79
2024/01/17 02:11:31;;;;;;;1999.90;999.90;;;1.10;99.90;;;;;;5051344;28;20043;-81
2024/01/17 02:14:00;;;;;;;1999.90;999.90;;;0.20;99.90;;;;;;5054521;28;20416;-79
2024/01/17 02:16:26;;;;;;;1999.90;999.90;;;0.60;99.90;;;;;;5060807;28;20067;-79
2024/01/17 02:18:52;;;;;;;1999.90;999.90;;;0.20;99.90;;;;;;5070081;28;20040;-80
2024/01/17 02:21:18;;;;;;;1999.90;999.90;;;0.20;99.90;;;;;;5061818;28;20048;-79
2024/01/17 02:23:51;;;;;;;1999.90;999.90;;;0.20;99.90;;;;;;5077870;28;20111;-79
2024/01/17 02:26:17;;;;;;;1999.90;999.90;;;0.20;99.90;;;;;;5054010;28;20099;-80
2024/01/17 02:28:43;;;;;;;1999.90;999.90;;;0.30;99.90;;;;;;5070404;28;20287;-79
2024/01/17 02:31:10;;;;;;;1999.90;999.90;;;0.30;99.90;;;;;;5059606;28;20051;-79
2024/01/17 02:33:36;;;;;;;1999.90;999.90;;;0.30;99.90;;;;;;5051392;28;20041;-79
2024/01/17 02:36:01;;;;;;;1999.90;999.90;;;0.30;99.90;;;;;;5074413;28;20103;-79
2024/01/17 02:38:27;;;;;;;1999.90;999.90;;;0.30;99.90;;;;;;5078425;28;20069;-79
2024/01/17 02:40:53;;;;;;;1999.90;999.90;;;0.30;99.90;;;;;;5069199;28;20045;-79
2024/01/17 02:43:18;;;;;;;1999.90;999.90;;;0.20;99.90;;;;;;5064111;28;20493;-80
2024/01/17 02:45:44;;;;;;;1999.90;999.90;;;0.30;99.90;;;;;;5073062;28;20036;-79
2024/01/17 02:48:12;;;;;;;1999.90;999.90;;;0.30;99.90;;;;;;5060403;28;20413;-79
2024/01/17 02:50:39;;;;;;;1999.90;999.90;;;0.20;99.90;;;;;;5052096;28;20029;-78
2024/01/17 02:53:06;;;;;;;1999.90;999.90;;;0.20;99.90;;;;;;5073247;28;20094;-79
2024/01/17 02:55:32;;;;;;;1999.90;999.90;;;0.20;99.90;;;;;;5078119;28;20044;-80
2024/01/17 02:58:00;;;;;;;1999.90;999.90;;;0.20;99.90;;;;;;5074166;28;20038;-79
2024/01/17 03:00:25;;;;;;;1999.90;999.90;;;0.20;99.90;;;;;;5065820;28;20037;-79
2024/01/17 03:02:51;;;;;;;1999.90;999.90;;;0.20;99.90;;;;;;5073238;28;20055;-80
2024/01/17 03:05:17;;;;;;;1999.90;999.90;;;0.20;99.90;;;;;;5050467;28;20048;-79
2024/01/17 03:07:42;;;;;;;1999.90;999.90;;;0.20;99.90;;;;;;5060937;28;20078;-80
2024/01/17 03:10:11;;;;;;;1999.90;999.90;;;0.20;99.90;;;;;;5072771;28;20044;-79
2024/01/17 03:12:37;;;;;;;1999.90;999.90;;;0.20;99.90;;;;;;5072902;28;20041;-79
2024/01/17 03:15:03;;;;;;;1999.90;999.90;;;0.90;99.90;;;;;;5073350;28;20043;-79
2024/01/17 03:17:29;;;;;;;1999.90;999.90;;;0.20;99.90;;;;;;5076730;28;20041;-79
2024/01/17 03:19:54;;;;;;;1999.90;999.90;;;0.20;99.90;;;;;;5071648;28;20043;-80
2024/01/17 03:22:20;;;;;;;1999.90;999.90;;;0.20;99.90;;;;;;5074812;28;20096;-79
2024/01/17 03:24:46;;;;;;;1999.90;999.90;;;0.20;99.90;;;;;;5067039;28;20078;-80
2024/01/17 03:27:15;;;;;;;1999.90;999.90;;;0.20;99.90;;;;;;5078460;28;20049;-80
2024/01/17 03:29:40;;;;;;;1999.90;999.90;;;0.20;99.90;;;;;;5072386;28;20413;-80
2024/01/17 03:32:06;;;;;;;1999.90;999.90;;;0.20;99.90;;;;;;5056102;28;20036;-79
2024/01/17 03:34:32;;;;;;;1999.90;999.90;;;0.70;99.90;;;;;;5049084;28;20040;-79
2024/01/17 03:36:57;;;;;;;1999.90;999.90;;;0.10;99.90;;;;;;5047846;28;20123;-80
2024/01/17 03:39:23;;;;;;;1999.90;999.90;;;0.10;99.90;;;;;;5051288;28;20048;-79
2024/01/17 03:41:48;;;;;;;1999.90;999.90;;;0.10;99.90;;;;;;5055898;28;20059;-80
2024/01/17 03:44:14;;;;;;;1999.90;999.90;;;0.10;99.90;;;;;;5072364;28;20036;-79
2024/01/17 03:46:40;;;;;;;1999.90;999.90;;;0.10;99.90;;;;;;5063836;28;20501;-79
2024/01/17 03:49:05;;;;;;;1999.90;999.90;;;1.50;99.90;;;;;;5054304;28;20402;-80
2024/01/17 03:51:31;;;;;;;1999.90;999.90;;;0.10;99.90;;;;;;5060279;28;20539;-80
2024/01/17 03:53:57;;;;;;;1999.90;999.90;;;0.10;99.90;;;;;;5059921;28;20036;-79
2024/01/17 03:56:23;;;;;;;1999.90;999.90;;;0.10;99.90;;;;;;5076583;28;20120;-79
2024/01/17 03:58:48;;;;;;;1999.90;999.90;;;0.10;99.90;;;;;;5054234;28;20064;-79
2024/01/17 04:01:14;;;;;;;1999.90;999.90;;;0.10;99.90;;;;;;5058616;28;20508;-80
2024/01/17 04:03:40;;;;;;;1999.90;999.90;;;0.10;99.90;;;;;;5075906;28;20040;-80
2024/01/17 04:06:06;;;;;;;1999.90;999.90;;;0.10;99.90;;;;;;5067236;28;20067;-80
2024/01/17 04:08:32;;;;;;;1999.90;999.90;;;0.10;99.90;;;;;;5074762;28;20041;-78
2024/01/17 04:11:01;;;;;;;1999.90;999.90;;;0.10;99.90;;;;;;5071603;28;20032;-77
2024/01/17 04:13:26;;;;;;;1999.90;999.90;;;0.10;99.90;;;;;;5060228;28;20397;-79
2024/01/17 04:15:54;;;;;;;1999.90;999.90;;;0.10;99.90;;;;;;5048262;28;20044;-84
2024/01/17 04:18:20;;;;;;;1999.90;999.90;;;0.10;99.90;;;;;;5074295;28;20075;-83
2024/01/17 04:20:46;;;;;;;1999.90;999.90;;;0.10;99.90;;;;;;5050776;28;20032;-83
2024/01/17 04:23:11;;;;;;;1999.90;999.90;;;0.90;99.90;;;;;;5069795;28;20036;-83
2024/01/17 04:25:40;;;;;;;1999.90;999.90;;;0.10;99.90;;;;;;5060852;28;20474;-84
2024/01/17 04:28:06;;;;;;;1999.90;999.90;;;0.40;99.90;;;;;;5071608;28;20039;-84
2024/01/17 04:30:32;;;;;;;1999.90;999.90;;;0.10;99.90;;;;;;5047188;28;20040;-84
2024/01/17 04:32:58;;;;;;;1999.90;999.90;;;1.30;99.90;;;;;;5069471;28;20044;-84
2024/01/17 04:35:24;;;;;;;1999.90;999.90;;;0.10;99.90;;;;;;5065352;28;20372;-83
2024/01/17 04:37:50;;;;;;;1999.90;999.90;;;0.10;99.90;;;;;;5034240;28;20033;-83
2024/01/17 04:40:15;;;;;;;1999.90;999.90;;;0.10;99.90;;;;;;5049628;28;20111;-84
2024/01/17 04:42:43;;;;;;;1999.90;999.90;;;0.10;99.90;;;;;;5028196;28;20036;-84
2024/01/17 04:45:10;;;;;;;1999.90;999.90;;;0.10;99.90;;;;;;5061555;28;20096;-84
2024/01/17 04:47:36;;;;;;;1999.90;999.90;;;0.10;99.90;;;;;;5044966;28;20044;-84
2024/01/17 04:50:02;;;;;;;1999.90;999.90;;;0.10;99.90;;;;;;5057401;28;20033;-84
2024/01/17 04:52:27;;;;;;;1999.90;999.90;;;0.00;99.90;;;;;;5050014;28;20405;-83
2024/01/17 04:54:53;;;;;;;1999.90;999.90;;;0.50;99.90;;;;;;5056729;28;20087;-83
2024/01/17 04:57:22;;;;;;;1999.90;999.90;;;0.00;99.90;;;;;;5068635;28;20041;-83
2024/01/17 04:59:48;;;;;;;1999.90;999.90;;;0.00;99.90;;;;;;5080244;28;20032;-83
2024/01/17 05:02:14;;;;;;;1999.90;999.90;;;0.00;99.90;;;;;;5086771;28;20043;-83
2024/01/17 05:04:39;;;;;;;1999.90;999.90;;;1.20;99.90;;;;;;5055548;28;20094;-83
2024/01/17 05:07:05;;;;;;;1999.90;999.90;;;0.00;99.90;;;;;;5051738;28;20043;-83
2024/01/17 05:09:32;;;;;;;1999.90;999.90;;;-0.10;99.90;;;;;;5082405;28;20124;-84
2024/01/17 05:11:57;;;;;;;1999.90;999.90;;;1.30;99.90;;;;;;5072199;28;20044;-83
2024/01/17 05:14:23;;;;;;;1999.90;999.90;;;0.00;99.90;;;;;;5068480;28;20037;-84
2024/01/17 05:16:51;;;;;;;1999.90;999.90;;;0.00;99.90;;;;;;5051514;28;20044;-83
2024/01/17 05:19:17;;;;;;;1999.90;999.90;;;0.00;99.90;;;;;;5045425;28;20044;-83
2024/01/17 05:21:43;;;;;;;1999.90;999.90;;;-0.10;99.90;;;;;;5051859;28;20040;-83
2024/01/17 05:24:10;;;;;;;1999.90;999.90;;;0.00;99.90;;;;;;5032907;28;20045;-83
2024/01/17 05:26:35;;;;;;;1999.90;999.90;;;0.00;99.90;;;;;;5045649;28;20053;-83
2024/01/17 05:29:01;;;;;;;1999.90;999.90;;;0.00;99.90;;;;;;5046391;28;20041;-83
2024/01/17 05:31:28;;;;;;;1999.90;999.90;;;-0.10;99.90;;;;;;5051018;28;20099;-83
2024/01/17 05:33:54;;;;;;;1999.90;999.90;;;0.80;99.90;;;;;;5050993;28;20049;-83
2024/01/17 05:36:19;;;;;;;1999.90;999.90;;;-0.10;99.90;;;;;;5048906;28;20053;-79
2024/01/17 05:38:45;;;;;;;1999.90;999.90;;;-0.10;99.90;;;;;;5072963;28;20048;-79
2024/01/17 05:41:10;;;;;;;1999.90;999.90;;;-0.10;99.90;;;;;;5058769;28;20075;-80
2024/01/17 05:43:36;;;;;;;1999.90;999.90;;;0.80;99.90;;;;;;5049190;28;20079;-80
2024/01/17 05:46:02;;;;;;;1999.90;999.90;;;-0.10;99.90;;;;;;5070830;28;20425;-79
2024/01/17 05:48:27;;;;;;;1999.90;999.90;;;0.00;99.90;;;;;;5063010;28;20417;-80
2024/01/17 05:50:56;;;;;;;1999.90;999.90;;;-0.10;99.90;;;;;;5066361;28;20029;-79
2024/01/17 05:53:25;;;;;;;1999.90;999.90;;;-0.10;99.90;;;;;;5081625;28;20047;-79
2024/01/17 05:55:52;;;;;;;1999.90;999.90;;;-0.20;99.90;;;;;;5079540;28;20036;-79
2024/01/17 05:58:19;;;;;;;1999.90;999.90;;;-0.10;99.90;;;;;;5074719;28;20040;-79
2024/01/17 06:00:45;;;;;;;1999.90;999.90;;;-0.20;99.90;;;;;;5074025;28;20044;-80
2024/01/17 06:03:11;;;;;;;1999.90;999.90;;;-0.20;99.90;;;;;;5074590;28;20039;-81
2024/01/17 06:05:36;;;;;;;1999.90;999.90;;;-0.30;99.90;;;;;;5072872;28;20047;-80
2024/01/17 06:08:02;;;;;;;1999.90;999.90;;;-0.40;99.90;;;;;;5074736;28;20044;-80
2024/01/17 06:10:29;;;;;;;1999.90;999.90;;;-0.40;99.90;;;;;;5043552;28;20067;-79
2024/01/17 06:12:55;;;;;;;1999.90;999.90;;;-0.50;99.90;;;;;;5053225;28;20036;-79
2024/01/17 06:15:23;;;;;;;1999.90;999.90;;;-0.50;99.90;;;;;;5072381;28;20404;-79
2024/01/17 06:17:49;;;;;;;1999.90;999.90;;;-0.50;99.90;;;;;;5071463;28;20079;-78
2024/01/17 06:20:15;;;;;;;1999.90;999.90;;;-0.60;99.90;;;;;;5062545;28;20063;-78
2024/01/17 06:22:42;;;;;;;1999.90;999.90;;;0.00;99.90;;;;;;5067087;28;20045;-78
2024/01/17 06:25:08;;;;;;;1999.90;999.90;;;-0.60;99.90;;;;;;5068074;28;20033;-80
2024/01/17 06:27:34;;;;;;;1999.90;999.90;;;-0.60;99.90;;;;;;5066732;28;20053;-78
2024/01/17 06:30:00;;;;;;;1999.90;999.90;;;-0.70;99.90;;;;;;5065989;28;20071;-79
2024/01/17 06:32:25;;;;;;;1999.90;999.90;;;-0.60;99.90;;;;;;5063084;28;20626;-78
2024/01/17 06:34:51;;;;;;;1999.90;999.90;;;-0.60;99.90;;;;;;5042956;28;20460;-78
2024/01/17 06:37:17;;;;;;;1999.90;999.90;;;-0.70;99.90;;;;;;5068873;28;20127;-79
2024/01/17 06:39:43;;;;;;;1999.90;999.90;;;-0.70;99.90;;;;;;5055058;28;20071;-79
2024/01/17 06:42:10;;;;;;;1999.90;999.90;;;-0.70;99.90;;;;;;5069801;28;20051;-80
2024/01/17 06:44:36;;;;;;;1999.90;999.90;;;-0.70;99.90;;;;;;5069392;28;20128;-79
2024/01/17 06:47:02;;;;;;;1999.90;999.90;;;0.40;99.90;;;;;;5072452;28;20055;-79
2024/01/17 06:49:27;;;;;;;1999.90;999.90;;;-0.70;99.90;;;;;;5056260;28;20041;-80
2024/01/17 06:51:55;;;;;;;1999.90;999.90;;;-0.70;99.90;;;;;;5071457;28;20250;-79
2024/01/17 06:54:21;;;;;;;1999.90;999.90;;;-0.80;99.90;;;;;;5074442;28;20116;-78
2024/01/17 06:56:47;;;;;;;1999.90;999.90;;;-0.80;99.90;;;;;;5087555;28;20041;-80
2024/01/17 06:59:12;;;;;;;1999.90;999.90;;;-0.80;99.90;;;;;;5086490;28;20047;-80
2024/01/17 07:01:40;;;;;;;1999.90;999.90;;;-0.80;99.90;;;;;;5069192;28;20042;-79
2024/01/17 07:04:05;;;;;;;1999.90;999.90;;;-0.90;99.90;;;;;;5054336;28;20198;-81
2024/01/17 07:06:31;;;;;;;1999.90;999.90;;;-0.90;99.90;;;;;;5080806;28;20040;-79
2024/01/17 07:09:08;;;;;;;1999.90;999.90;;;-0.90;99.90;;;;;;5077289;28;20036;-80
2024/01/17 07:11:34;;;;;;;1999.90;999.90;;;-0.90;99.90;;;;;;5081710;28;20158;-80
2024/01/17 07:14:00;;;;;;;1999.90;999.90;;;-0.90;99.90;;;;;;5072031;28;20572;-79
2024/01/17 07:16:26;;;;;;;1999.90;999.90;;;-1.00;99.90;;;;;;5081387;28;20143;-80
2024/01/17 07:18:53;;;;;;;1999.90;999.90;;;-1.00;99.90;;;;;;5063339;28;20040;-80
2024/01/17 07:21:18;;;;;;;1999.90;999.90;;;-1.00;99.90;;;;;;5050034;28;20514;-80
2024/01/17 07:23:44;;;;;;;1999.90;999.90;;;-1.00;99.90;;;;;;5078366;28;20038;-80
2024/01/17 07:26:10;;;;;;;1999.90;999.90;;;-1.10;99.90;;;;;;5057648;28;20041;-80
2024/01/17 07:28:35;;;;;;;1999.90;999.90;;;-1.10;99.90;;;;;;5071680;28;20056;-82
2024/01/17 07:31:01;;;;;;;1999.90;999.90;;;-1.10;99.90;;;;;;5058711;28;20043;-81
2024/01/17 07:33:26;;;;;;;1999.90;999.90;;;-1.10;99.90;;;;;;5073802;28;20510;-81
2024/01/17 07:35:52;;;;;;;1999.90;999.90;;;-1.10;99.90;;;;;;5058105;28;20404;-79
2024/01/17 07:38:18;;;;;;;1999.90;999.90;;;-1.20;99.90;;;;;;5060542;28;20041;-79
2024/01/17 07:40:43;;;;;;;1999.90;999.90;;;-1.20;99.90;;;;;;5070289;28;20055;-80
2024/01/17 07:43:09;;;;;;;1999.90;999.90;;;-1.70;99.90;;;;;;5048408;28;20050;-78
2024/01/17 07:45:34;;;;;;;1999.90;999.90;;;-1.20;99.90;;;;;;5067264;28;20040;-78
2024/01/17 07:48:00;;;;;;;1999.90;999.90;;;-1.20;99.90;;;;;;5066264;28;20246;-79
2024/01/17 07:50:26;;;;;;;1999.90;999.90;;;-1.20;99.90;;;;;;5081751;28;20477;-81
2024/01/17 07:52:52;;;;;;;1999.90;999.90;;;-1.30;99.90;;;;;;5078516;28;20067;-82
2024/01/17 07:55:18;;;;;;;1999.90;999.90;;;-1.30;99.90;;;;;;5071827;28;20665;-80
2024/01/17 07:57:43;;;;;;;1999.90;999.90;;;-1.30;99.90;;;;;;5063665;28;20457;-81
2024/01/17 08:00:11;;;;;;;1999.90;999.90;;;-1.30;99.90;;;;;;5070669;28;20041;-85
2024/01/17 08:02:37;;;;;;;1999.90;999.90;;;-1.30;99.90;;;;;;5047196;28;20060;-81
2024/01/17 08:05:04;;;;;;;1999.90;999.90;;;-1.30;99.90;;;;;;5055630;28;20041;-80
2024/01/17 08:07:30;;;;;;;1999.90;999.90;;;-1.30;99.90;;;;;;5054336;28;20047;-80
2024/01/17 08:09:56;;;;;;;1999.90;999.90;;;-1.30;99.90;;;;;;5069926;28;20040;-80
2024/01/17 08:12:22;;;;;;;1999.90;999.90;;;-1.30;99.90;;;;;;5062311;28;20040;-80
2024/01/17 08:14:47;;;;;;;1999.90;999.90;;;-1.30;99.90;;;;;;5054062;28;20225;-80
2024/01/17 08:17:13;;;;;;;1999.90;999.90;;;-1.30;99.90;;;;;;5044952;28;20064;-80
2024/01/17 08:19:39;;;;;;;1999.90;999.90;;;-1.30;99.90;;;;;;5078244;28;20060;-80
2024/01/17 08:22:05;;;;;;;1999.90;999.90;;;-1.30;99.90;;;;;;5069607;28;20048;-80
2024/01/17 08:24:31;;;;;;;1999.90;999.90;;;-1.30;99.90;;;;;;5054085;28;20401;-80
2024/01/17 08:26:58;;;;;;;1999.90;999.90;;;-1.30;99.90;;;;;;5051738;28;20362;-81
2024/01/17 08:29:24;;;;;;;1999.90;999.90;;;-1.20;99.90;;;;;;5050522;28;20037;-81
2024/01/17 08:31:50;;;;;;;1999.90;999.90;;;-1.20;99.90;;;;;;5052162;28;20033;-81
2024/01/17 08:34:16;;;;;;;1999.90;999.90;;;-1.20;99.90;;;;;;5061359;28;20509;-81
2024/01/17 08:36:41;;;;;;;1999.90;999.90;;;-1.20;99.90;;;;;;5048789;28;20469;-81
2024/01/17 08:39:07;;;;;;;1999.90;999.90;;;-1.20;99.90;;;;;;5064621;28;20037;-82
2024/01/17 08:41:33;;;;;;;1999.90;999.90;;;-1.20;99.90;;;;;;5063307;28;20032;-81
2024/01/17 08:44:01;;;;;;;1999.90;999.90;;;-1.10;99.90;;;;;;5055146;28;20405;-81
2024/01/17 08:46:27;;;;;;;1999.90;999.90;;;-1.10;99.90;;;;;;5061127;28;20041;-81
2024/01/17 08:48:52;;;;;;;1999.90;999.90;;;-1.10;99.90;;;;;;5061997;28;20037;-81
2024/01/17 08:51:21;;;;;;;1999.90;999.90;;;-1.20;99.90;;;;;;5063806;28;20446;-81
2024/01/17 08:53:47;;;;;;;1999.90;999.90;;;-1.10;99.90;;;;;;5047258;28;20029;-81
2024/01/17 08:56:14;;;;;;;1999.90;999.90;;;-1.10;99.90;;;;;;5049646;28;20052;-81
2024/01/17 08:58:41;;;;;;;1999.90;999.90;;;-1.10;99.90;;;;;;5044881;28;20065;-81
2024/01/17 09:01:06;;;;;;;1999.90;999.90;;;-1.10;99.90;;;;;;5046559;28;20035;-81
2024/01/17 09:03:34;;;;;;;1999.90;999.90;;;0.10;99.90;;;;;;5062843;28;20099;-81
2024/01/17 09:06:00;;;;;;;1999.90;999.90;;;-1.00;99.90;;;;;;5056424;28;20072;-82
2024/01/17 09:08:26;;;;;;;1999.90;999.90;;;-0.90;99.90;;;;;;5079932;28;20028;-82
2024/01/17 09:10:52;;;;;;;1999.90;999.90;;;-0.90;99.90;;;;;;5100272;22;20061;-81
2024/01/17 09:13:18;;;;;;;1999.90;999.90;;;-0.10;99.90;;;;;;5029407;28;20061;-80
2024/01/17 09:15:43;;;;;;;1999.90;999.90;;;-0.80;99.90;;;;;;5025650;28;20041;-82
2024/01/17 09:18:09;;;;;;;1999.90;999.90;;;-0.80;99.90;;;;;;5041301;28;20124;-81
2024/01/17 09:20:35;;;;;;;1999.90;999.90;;;-0.80;99.90;;;;;;5023775;28;20113;-82
2024/01/17 09:23:00;;;;;;;1999.90;999.90;;;-0.70;99.90;;;;;;5021392;28;20045;-80
2024/01/17 09:25:26;;;;;;;1999.90;999.90;;;-0.70;99.90;;;;;;5034022;28;20042;-79
2024/01/17 09:27:51;;;;;;;1999.90;999.90;;;-0.60;99.90;;;;;;5036641;28;20080;-79
2024/01/17 09:30:17;;;;;;;1999.90;999.90;;;-0.60;99.90;;;;;;5027052;28;20046;-79
2024/01/17 09:32:47;;;;;;;1999.90;999.90;;;-0.60;99.90;;;;;;5042597;28;20105;-81
2024/01/17 09:35:13;;;;;;;1999.90;999.90;;;0.60;99.90;;;;;;5029262;28;20041;-81
2024/01/17 09:37:42;;;;;;;1999.90;999.90;;;-0.70;99.90;;;;;;5030880;28;20052;-83
2024/01/17 09:40:08;;;;;;;1999.90;999.90;;;-0.20;99.90;;;;;;5029465;28;20041;-81
2024/01/17 09:42:34;;;;;;;1999.90;999.90;;;-0.50;99.90;;;;;;5031437;28;20040;-82
2024/01/17 09:45:04;;;;;;;1999.90;999.90;;;-0.40;99.90;;;;;;5048720;28;20037;-82
2024/01/17 09:47:34;;;;;;;1999.90;999.90;;;-0.40;99.90;;;;;;5048699;28;20037;-81
2024/01/17 09:49:59;;;;;;;1999.90;999.90;;;-0.30;99.90;;;;;;5049106;28;20033;-82
2024/01/17 09:52:25;;;;;;;1999.90;999.90;;;-0.30;99.90;;;;;;5050064;28;20060;-82
2024/01/17 09:54:52;;;;;;;1999.90;999.90;;;-0.20;99.90;;;;;;5032231;28;20061;-81
2024/01/17 09:57:22;;;;;;;1999.90;999.90;;;1.00;99.90;;;;;;5030770;28;20055;-82
2024/01/17 10:00:07;;;;;;;1999.90;999.90;;;0.50;99.90;;;;;;5044353;28;20091;-82
2024/01/17 10:02:35;;;;;;;1999.90;999.90;;;0.20;99.90;;;;;;5044060;28;20045;-82
2024/01/17 10:05:04;;;;;;;1999.90;999.90;;;0.00;99.90;;;;;;5028277;28;20088;-81
2024/01/17 10:07:31;;;;;;;1999.90;999.90;;;0.00;99.90;;;;;;5045402;28;20101;-80
2024/01/17 10:09:57;;;;;;;1999.90;999.90;;;0.10;99.90;;;;;;5026326;28;20029;-80
2024/01/17 10:12:22;;;;;;;1999.90;999.90;;;0.20;99.90;;;;;;5041083;28;20076;-80
2024/01/17 10:14:48;;;;;;;1999.90;999.90;;;1.40;99.90;;;;;;5024106;28;20041;-80
2024/01/17 10:17:14;;;;;;;1999.90;999.90;;;0.40;99.90;;;;;;5025690;28;20037;-79
2024/01/17 10:19:40;;;;;;;1999.90;999.90;;;0.40;99.90;;;;;;5042122;28;20041;-80
2024/01/17 10:22:10;;;;;;;1999.90;999.90;;;0.50;99.90;;;;;;5027022;28;20606;-81
2024/01/17 10:24:36;;;;;;;1999.90;999.90;;;0.60;99.90;;;;;;5027292;28;20055;-80
2024/01/17 10:27:03;;;;;;;1999.90;999.90;;;0.60;99.90;;;;;;5025916;28;20097;-80
2024/01/17 10:29:36;;;;;;;1999.90;999.90;;;0.70;99.90;;;;;;5039201;28;20076;-81
2024/01/17 10:32:02;;;;;;;1999.90;999.90;;;0.70;99.90;;;;;;5025580;28;20033;-80
2024/01/17 10:34:28;;;;;;;1999.90;999.90;;;0.70;99.90;;;;;;5041643;28;20072;-80
2024/01/17 10:36:55;;;;;;;1999.90;999.90;;;0.80;99.90;;;;;;5021424;28;20038;-80
2024/01/17 10:39:21;;;;;;;1999.90;999.90;;;0.80;99.90;;;;;;5020471;28;20042;-80
2024/01/17 10:41:54;;;;;;;1999.90;999.90;;;0.90;99.90;;;;;;5017892;28;20494;-80
2024/01/17 10:44:21;;;;;;;1999.90;999.90;;;0.90;99.90;;;;;;5021279;28;20052;-79
2024/01/17 10:46:50;;;;;;;1999.90;999.90;;;1.20;99.90;;;;;;5036083;28;20029;-79
2024/01/17 10:49:17;;;;;;;1999.90;999.90;;;1.00;99.90;;;;;;5036410;28;20268;-79
2024/01/17 10:52:03;;;;;;;1999.90;999.90;;;1.60;99.90;;;;;;5034662;28;20292;-79
2024/01/17 10:54:41;;;;;;;1999.90;999.90;;;1.10;99.90;;;;;;5031240;28;20433;-79
2024/01/17 10:57:10;;;;;;;1999.90;999.90;;;1.00;99.90;;;;;;5017758;28;20065;-79
2024/01/17 10:59:41;;;;;;;1999.90;999.90;;;1.10;99.90;;;;;;5018006;28;20041;-79
2024/01/17 11:02:15;;;;;;;1999.90;999.90;;;1.20;99.90;;;;;;5015601;28;20502;-78
2024/01/17 11:04:44;;;;;;;1999.90;999.90;;;1.20;99.90;;;;;;5031998;28;20548;-78
2024/01/17 11:07:09;;;;;;;1999.90;999.90;;;1.20;99.90;;;;;;5035138;28;20038;-79
2024/01/17 11:09:37;;;;;;;1999.90;999.90;;;1.30;99.90;;;;;;5015564;28;20049;-79
2024/01/17 11:12:04;;;;;;;1999.90;999.90;;;1.30;99.90;;;;;;5031889;28;20149;-78
2024/01/17 11:14:31;;;;;;;1999.90;999.90;;;1.40;99.90;;;;;;5015017;28;20044;-79
2024/01/17 11:17:03;;;;;;;1999.90;999.90;;;1.30;99.90;;;;;;5015733;28;20276;-78
2024/01/17 11:19:32;;;;;;;1999.90;999.90;;;1.30;99.90;;;;;;5014993;28;20113;-78
2024/01/17 11:22:02;;;;;;;1999.90;999.90;;;1.20;99.90;;;;;;5031674;28;20478;-79
2024/01/17 11:24:36;;;;;;;1999.90;999.90;;;1.20;99.90;;;;;;5015948;28;20026;-79
2024/01/17 11:27:22;;;;;;;1999.90;999.90;;;1.20;99.90;;;;;;5011866;28;20434;-79
2024/01/17 11:30:12;;;;;;;1999.90;999.90;;;1.20;99.90;;;;;;5031703;28;20118;-78
2024/01/17 11:33:00;;;;;;;1999.90;999.90;;;1.30;99.90;;;;;;5012780;28;20037;-78
2024/01/17 11:36:05;;;;;;;1999.90;999.90;;;1.30;99.90;;;;;;5030777;28;20041;-78
2024/01/17 11:38:32;;;;;;;1999.90;999.90;;;1.40;99.90;;;;;;4975105;28;20050;-78
2024/01/17 11:41:06;;;;;;;1999.90;999.90;;;1.40;99.90;;;;;;4974902;28;20060;-78
2024/01/17 11:43:36;;;;;;;1999.90;999.90;;;1.50;99.90;;;;;;4987182;28;20048;-80
2024/01/17 11:46:08;;;;;;;1999.90;999.90;;;1.50;99.90;;;;;;5016533;28;20084;-79
2024/01/17 11:48:35;;;;;;;1999.90;999.90;;;1.50;99.90;;;;;;5019342;28;20513;-79
2024/01/17 11:51:01;;;;;;;1999.90;999.90;;;1.60;99.90;;;;;;5015910;28;20038;-80
2024/01/17 11:53:33;;;;;;;1999.90;999.90;;;2.60;99.90;;;;;;5031707;28;20038;-79
2024/01/17 11:56:05;;;;;;;1999.90;999.90;;;1.60;99.90;;;;;;5015776;28;20120;-79
2024/01/17 11:58:47;;;;;;;1999.90;999.90;;;1.70;99.90;;;;;;5034079;28;20033;-79
2024/01/17 12:01:22;;;;;;;1999.90;999.90;;;1.60;99.90;;;;;;5017220;28;20029;-78
2024/01/17 12:03:51;;;;;;;1999.90;999.90;;;1.70;99.90;;;;;;5026763;28;20121;-78
2024/01/17 12:06:17;;;;;;;1999.90;999.90;;;1.70;99.90;;;;;;5030695;28;20077;-79